Allenton, Michigan
Current Conditions -  °F | °C
As of 7:14 PM on Wednesday 28 Jan 2015 (Local Time) from KD95 Reporting Station
Scattered Clouds Scattered Clouds  
Wind Chill: -8°   Ceiling: Unl
Heat Index: -3°   Visibility: 10mi
Dew Point: -11°   Wind: 8mph
Humidity: 54%   Direction: 170°S
Pressure: 30.2"   Gusts: NA
Location:  42.92°N, 82.95°W
Report Text: KD95 290014Z AUTO 17007KT 10SM SCT120 M03/M11 A3020 RMK AO2 T10291111
Loading
Personal Weather Stations






























Interactive Weather Map New forecast layout! Learn more

10-Day Weather Forecast

Advertisements
Track Severe Weather on mobile